sensor_id;sensor_type;location;lat;lon;timestamp;temperature;humidity
79187;SHT31;68762;51.980;5.646;2023-04-24T00:01:45;12.5;71.2
79187;SHT31;68762;51.980;5.646;2023-04-24T00:04:14;12.5;70.6
79187;SHT31;68762;51.980;5.646;2023-04-24T00:06:44;12.6;70.6
79187;SHT31;68762;51.980;5.646;2023-04-24T00:09:16;12.6;70.2
79187;SHT31;68762;51.980;5.646;2023-04-24T00:11:44;12.6;70.2
79187;SHT31;68762;51.980;5.646;2023-04-24T00:14:13;12.6;70.2
79187;SHT31;68762;51.980;5.646;2023-04-24T00:16:42;12.6;70.3
79187;SHT31;68762;51.980;5.646;2023-04-24T00:19:10;12.6;70.3
79187;SHT31;68762;51.980;5.646;2023-04-24T00:21:39;12.6;69.9
79187;SHT31;68762;51.980;5.646;2023-04-24T00:24:08;12.6;70.3
79187;SHT31;68762;51.980;5.646;2023-04-24T00:26:38;12.6;70.2
79187;SHT31;68762;51.980;5.646;2023-04-24T00:29:06;12.7;69.9
79187;SHT31;68762;51.980;5.646;2023-04-24T00:31:35;12.7;70.0
79187;SHT31;68762;51.980;5.646;2023-04-24T00:34:04;12.7;69.6
79187;SHT31;68762;51.980;5.646;2023-04-24T00:36:36;12.7;69.6
79187;SHT31;68762;51.980;5.646;2023-04-24T00:39:04;12.7;69.7
79187;SHT31;68762;51.980;5.646;2023-04-24T00:41:37;12.7;69.2
79187;SHT31;68762;51.980;5.646;2023-04-24T00:44:07;12.7;70.1
79187;SHT31;68762;51.980;5.646;2023-04-24T00:46:37;12.7;70.3
79187;SHT31;68762;51.980;5.646;2023-04-24T00:49:06;12.6;70.7
79187;SHT31;68762;51.980;5.646;2023-04-24T00:51:37;12.6;70.8
79187;SHT31;68762;51.980;5.646;2023-04-24T00:54:07;12.6;70.7
79187;SHT31;68762;51.980;5.646;2023-04-24T00:56:37;12.6;69.8
79187;SHT31;68762;51.980;5.646;2023-04-24T00:59:06;12.6;70.8
79187;SHT31;68762;51.980;5.646;2023-04-24T01:01:35;12.6;71.0
79187;SHT31;68762;51.980;5.646;2023-04-24T01:04:04;12.5;70.4
79187;SHT31;68762;51.980;5.646;2023-04-24T01:06:34;12.5;69.9
79187;SHT31;68762;51.980;5.646;2023-04-24T01:09:03;12.4;69.9
79187;SHT31;68762;51.980;5.646;2023-04-24T01:11:34;12.4;69.7
79187;SHT31;68762;51.980;5.646;2023-04-24T01:14:03;12.4;70.3
79187;SHT31;68762;51.980;5.646;2023-04-24T01:16:31;12.3;69.8
79187;SHT31;68762;51.980;5.646;2023-04-24T01:19:00;12.3;70.0
79187;SHT31;68762;51.980;5.646;2023-04-24T01:21:30;12.3;70.1
79187;SHT31;68762;51.980;5.646;2023-04-24T01:24:04;12.3;70.5
79187;SHT31;68762;51.980;5.646;2023-04-24T01:26:33;12.3;70.7
79187;SHT31;68762;51.980;5.646;2023-04-24T01:29:04;12.3;70.7
79187;SHT31;68762;51.980;5.646;2023-04-24T01:31:34;12.3;71.1
79187;SHT31;68762;51.980;5.646;2023-04-24T01:34:03;12.3;71.2
79187;SHT31;68762;51.980;5.646;2023-04-24T01:36:35;12.3;71.4
79187;SHT31;68762;51.980;5.646;2023-04-24T01:39:03;12.3;71.2
79187;SHT31;68762;51.980;5.646;2023-04-24T01:41:33;12.3;71.4
79187;SHT31;68762;51.980;5.646;2023-04-24T01:44:02;12.3;71.7
79187;SHT31;68762;51.980;5.646;2023-04-24T01:46:31;12.3;72.2
79187;SHT31;68762;51.980;5.646;2023-04-24T01:49:04;12.3;72.2
79187;SHT31;68762;51.980;5.646;2023-04-24T01:51:33;12.3;72.2
79187;SHT31;68762;51.980;5.646;2023-04-24T01:54:01;12.3;72.4
79187;SHT31;68762;51.980;5.646;2023-04-24T01:56:30;12.3;72.5
79187;SHT31;68762;51.980;5.646;2023-04-24T01:59:02;12.4;72.8
79187;SHT31;68762;51.980;5.646;2023-04-24T02:01:36;12.4;73.2
79187;SHT31;68762;51.980;5.646;2023-04-24T02:04:06;12.4;73.1
79187;SHT31;68762;51.980;5.646;2023-04-24T02:06:35;12.4;72.9
79187;SHT31;68762;51.980;5.646;2023-04-24T02:09:05;12.4;73.0
79187;SHT31;68762;51.980;5.646;2023-04-24T02:11:34;12.4;73.0
79187;SHT31;68762;51.980;5.646;2023-04-24T02:14:03;12.5;72.6
79187;SHT31;68762;51.980;5.646;2023-04-24T02:16:31;12.5;72.2
79187;SHT31;68762;51.980;5.646;2023-04-24T02:19:02;12.5;72.6
79187;SHT31;68762;51.980;5.646;2023-04-24T02:21:31;12.5;72.2
79187;SHT31;68762;51.980;5.646;2023-04-24T02:23:59;12.5;72.5
79187;SHT31;68762;51.980;5.646;2023-04-24T02:26:29;12.6;72.7
79187;SHT31;68762;51.980;5.646;2023-04-24T02:28:58;12.6;72.8
79187;SHT31;68762;51.980;5.646;2023-04-24T02:31:27;12.6;73.0
79187;SHT31;68762;51.980;5.646;2023-04-24T02:33:55;12.6;73.0
79187;SHT31;68762;51.980;5.646;2023-04-24T02:36:24;12.6;72.8
79187;SHT31;68762;51.980;5.646;2023-04-24T02:38:53;12.6;72.6
79187;SHT31;68762;51.980;5.646;2023-04-24T02:41:23;12.6;71.2
79187;SHT31;68762;51.980;5.646;2023-04-24T02:43:57;12.6;71.0
79187;SHT31;68762;51.980;5.646;2023-04-24T02:46:26;12.6;71.1
79187;SHT31;68762;51.980;5.646;2023-04-24T02:48:55;12.6;71.2
79187;SHT31;68762;51.980;5.646;2023-04-24T02:51:23;12.6;71.0
79187;SHT31;68762;51.980;5.646;2023-04-24T02:53:55;12.6;71.2
79187;SHT31;68762;51.980;5.646;2023-04-24T02:56:23;12.6;70.8
79187;SHT31;68762;51.980;5.646;2023-04-24T02:58:52;12.6;70.9
79187;SHT31;68762;51.980;5.646;2023-04-24T03:01:21;12.6;71.0
79187;SHT31;68762;51.980;5.646;2023-04-24T03:03:49;12.6;70.8
79187;SHT31;68762;51.980;5.646;2023-04-24T03:06:18;12.5;71.0
79187;SHT31;68762;51.980;5.646;2023-04-24T03:08:47;12.5;71.2
79187;SHT31;68762;51.980;5.646;2023-04-24T03:11:15;12.5;71.3
79187;SHT31;68762;51.980;5.646;2023-04-24T03:13:44;12.6;71.4
79187;SHT31;68762;51.980;5.646;2023-04-24T03:16:15;12.6;71.5
79187;SHT31;68762;51.980;5.646;2023-04-24T03:18:43;12.6;71.6
79187;SHT31;68762;51.980;5.646;2023-04-24T03:21:12;12.6;71.7
79187;SHT31;68762;51.980;5.646;2023-04-24T03:23:40;12.6;71.8
79187;SHT31;68762;51.980;5.646;2023-04-24T03:26:09;12.6;71.9
79187;SHT31;68762;51.980;5.646;2023-04-24T03:28:37;12.6;72.1
79187;SHT31;68762;51.980;5.646;2023-04-24T03:31:07;12.6;71.7
79187;SHT31;68762;51.980;5.646;2023-04-24T03:33:35;12.6;71.2
79187;SHT31;68762;51.980;5.646;2023-04-24T03:36:04;12.6;70.7
79187;SHT31;68762;51.980;5.646;2023-04-24T03:38:33;12.6;71.2
79187;SHT31;68762;51.980;5.646;2023-04-24T03:41:02;12.5;71.5
79187;SHT31;68762;51.980;5.646;2023-04-24T03:43:31;12.5;71.1
79187;SHT31;68762;51.980;5.646;2023-04-24T03:45:59;12.5;71.2
79187;SHT31;68762;51.980;5.646;2023-04-24T03:48:28;12.5;71.2
79187;SHT31;68762;51.980;5.646;2023-04-24T03:50:57;12.5;71.4
79187;SHT31;68762;51.980;5.646;2023-04-24T03:53:25;12.5;71.4
79187;SHT31;68762;51.980;5.646;2023-04-24T03:55:54;12.5;71.9
79187;SHT31;68762;51.980;5.646;2023-04-24T03:58:23;12.5;71.4
79187;SHT31;68762;51.980;5.646;2023-04-24T04:00:52;12.5;70.9
79187;SHT31;68762;51.980;5.646;2023-04-24T04:03:22;12.5;70.8
79187;SHT31;68762;51.980;5.646;2023-04-24T04:05:51;12.4;70.7
79187;SHT31;68762;51.980;5.646;2023-04-24T04:08:20;12.4;70.8
79187;SHT31;68762;51.980;5.646;2023-04-24T04:10:49;12.4;70.7
79187;SHT31;68762;51.980;5.646;2023-04-24T04:13:17;12.4;70.7
79187;SHT31;68762;51.980;5.646;2023-04-24T04:15:46;12.3;71.3
79187;SHT31;68762;51.980;5.646;2023-04-24T04:18:15;12.3;71.1
79187;SHT31;68762;51.980;5.646;2023-04-24T04:20:43;12.3;70.7
79187;SHT31;68762;51.980;5.646;2023-04-24T04:23:12;12.2;71.6
79187;SHT31;68762;51.980;5.646;2023-04-24T04:25:41;12.2;71.7
79187;SHT31;68762;51.980;5.646;2023-04-24T04:28:09;12.2;71.6
79187;SHT31;68762;51.980;5.646;2023-04-24T04:30:38;12.2;71.5
79187;SHT31;68762;51.980;5.646;2023-04-24T04:33:09;12.1;71.6
79187;SHT31;68762;51.980;5.646;2023-04-24T04:35:38;12.1;71.7
79187;SHT31;68762;51.980;5.646;2023-04-24T04:38:07;12.1;72.0
79187;SHT31;68762;51.980;5.646;2023-04-24T04:40:37;12.1;72.4
79187;SHT31;68762;51.980;5.646;2023-04-24T04:43:06;12.0;72.4
79187;SHT31;68762;51.980;5.646;2023-04-24T04:45:36;12.0;72.4
79187;SHT31;68762;51.980;5.646;2023-04-24T04:48:05;12.0;71.8
79187;SHT31;68762;51.980;5.646;2023-04-24T04:50:34;12.0;71.8
79187;SHT31;68762;51.980;5.646;2023-04-24T04:53:02;11.9;72.4
79187;SHT31;68762;51.980;5.646;2023-04-24T04:55:31;11.9;72.7
79187;SHT31;68762;51.980;5.646;2023-04-24T04:58:00;11.9;72.5
79187;SHT31;68762;51.980;5.646;2023-04-24T05:00:29;11.9;72.4
79187;SHT31;68762;51.980;5.646;2023-04-24T05:03:02;11.9;72.3
79187;SHT31;68762;51.980;5.646;2023-04-24T05:05:30;11.9;72.3
79187;SHT31;68762;51.980;5.646;2023-04-24T05:07:59;11.9;72.6
79187;SHT31;68762;51.980;5.646;2023-04-24T05:10:28;11.9;72.3
79187;SHT31;68762;51.980;5.646;2023-04-24T05:12:57;11.9;72.3
79187;SHT31;68762;51.980;5.646;2023-04-24T05:15:26;11.9;71.8
79187;SHT31;68762;51.980;5.646;2023-04-24T05:17:54;11.9;72.0
79187;SHT31;68762;51.980;5.646;2023-04-24T05:20:23;12.0;72.0
79187;SHT31;68762;51.980;5.646;2023-04-24T05:22:52;12.0;72.5
79187;SHT31;68762;51.980;5.646;2023-04-24T05:25:21;12.0;72.2
79187;SHT31;68762;51.980;5.646;2023-04-24T05:27:49;12.1;71.3
79187;SHT31;68762;51.980;5.646;2023-04-24T05:30:19;12.1;71.2
79187;SHT31;68762;51.980;5.646;2023-04-24T05:32:50;12.2;71.4
79187;SHT31;68762;51.980;5.646;2023-04-24T05:35:19;12.2;71.9
79187;SHT31;68762;51.980;5.646;2023-04-24T05:37:49;12.2;71.2
79187;SHT31;68762;51.980;5.646;2023-04-24T05:40:18;12.3;71.2
79187;SHT31;68762;51.980;5.646;2023-04-24T05:42:46;12.3;71.8
79187;SHT31;68762;51.980;5.646;2023-04-24T05:45:15;12.4;71.5
79187;SHT31;68762;51.980;5.646;2023-04-24T05:47:44;12.4;71.3
79187;SHT31;68762;51.980;5.646;2023-04-24T05:50:13;12.4;71.8
79187;SHT31;68762;51.980;5.646;2023-04-24T05:52:42;12.5;71.9
79187;SHT31;68762;51.980;5.646;2023-04-24T05:55:13;12.5;71.7
79187;SHT31;68762;51.980;5.646;2023-04-24T05:57:43;12.6;71.2
79187;SHT31;68762;51.980;5.646;2023-04-24T06:00:13;12.6;71.1
79187;SHT31;68762;51.980;5.646;2023-04-24T06:02:44;12.6;71.1
79187;SHT31;68762;51.980;5.646;2023-04-24T06:05:13;12.7;71.4
79187;SHT31;68762;51.980;5.646;2023-04-24T06:07:42;12.7;71.4
79187;SHT31;68762;51.980;5.646;2023-04-24T06:10:11;12.7;71.0
79187;SHT31;68762;51.980;5.646;2023-04-24T06:12:41;12.8;71.2
79187;SHT31;68762;51.980;5.646;2023-04-24T06:15:10;12.8;71.1
79187;SHT31;68762;51.980;5.646;2023-04-24T06:17:39;12.8;71.3
79187;SHT31;68762;51.980;5.646;2023-04-24T06:20:08;12.9;70.5
79187;SHT31;68762;51.980;5.646;2023-04-24T06:22:38;12.9;71.1
79187;SHT31;68762;51.980;5.646;2023-04-24T06:25:07;12.9;70.8
79187;SHT31;68762;51.980;5.646;2023-04-24T06:27:36;12.9;70.5
79187;SHT31;68762;51.980;5.646;2023-04-24T06:30:08;12.9;70.2
79187;SHT31;68762;51.980;5.646;2023-04-24T06:32:37;12.9;70.1
79187;SHT31;68762;51.980;5.646;2023-04-24T06:35:06;12.9;70.1
79187;SHT31;68762;51.980;5.646;2023-04-24T06:37:36;12.9;70.0
79187;SHT31;68762;51.980;5.646;2023-04-24T06:40:05;12.9;70.1
79187;SHT31;68762;51.980;5.646;2023-04-24T06:42:35;12.9;69.7
79187;SHT31;68762;51.980;5.646;2023-04-24T06:45:07;12.9;69.5
79187;SHT31;68762;51.980;5.646;2023-04-24T06:47:36;12.9;69.9
79187;SHT31;68762;51.980;5.646;2023-04-24T06:50:06;12.9;69.7
79187;SHT31;68762;51.980;5.646;2023-04-24T06:52:35;12.8;68.9
79187;SHT31;68762;51.980;5.646;2023-04-24T06:55:04;12.8;68.5
79187;SHT31;68762;51.980;5.646;2023-04-24T06:57:33;12.8;68.6
79187;SHT31;68762;51.980;5.646;2023-04-24T07:00:02;12.7;69.2
79187;SHT31;68762;51.980;5.646;2023-04-24T07:02:31;12.7;69.3
79187;SHT31;68762;51.980;5.646;2023-04-24T07:05:00;12.6;69.6
79187;SHT31;68762;51.980;5.646;2023-04-24T07:07:28;12.6;69.8
79187;SHT31;68762;51.980;5.646;2023-04-24T07:09:58;12.6;70.0
79187;SHT31;68762;51.980;5.646;2023-04-24T07:12:26;12.5;70.3
79187;SHT31;68762;51.980;5.646;2023-04-24T07:14:55;12.5;70.3
79187;SHT31;68762;51.980;5.646;2023-04-24T07:17:24;12.5;70.2
79187;SHT31;68762;51.980;5.646;2023-04-24T07:19:53;12.5;70.6
79187;SHT31;68762;51.980;5.646;2023-04-24T07:22:21;12.4;70.7
79187;SHT31;68762;51.980;5.646;2023-04-24T07:24:50;12.4;70.7
79187;SHT31;68762;51.980;5.646;2023-04-24T07:27:18;12.4;70.9
79187;SHT31;68762;51.980;5.646;2023-04-24T07:29:47;12.4;71.0
79187;SHT31;68762;51.980;5.646;2023-04-24T07:32:16;12.4;70.7
79187;SHT31;68762;51.980;5.646;2023-04-24T07:34:45;12.4;70.5
79187;SHT31;68762;51.980;5.646;2023-04-24T07:37:15;12.4;70.9
79187;SHT31;68762;51.980;5.646;2023-04-24T07:39:44;12.4;70.4
79187;SHT31;68762;51.980;5.646;2023-04-24T07:42:13;12.4;69.8
79187;SHT31;68762;51.980;5.646;2023-04-24T07:44:41;12.4;69.7
79187;SHT31;68762;51.980;5.646;2023-04-24T07:47:10;12.4;69.3
79187;SHT31;68762;51.980;5.646;2023-04-24T07:49:39;12.4;69.8
79187;SHT31;68762;51.980;5.646;2023-04-24T07:52:07;12.4;69.8
79187;SHT31;68762;51.980;5.646;2023-04-24T07:54:36;12.4;69.7
79187;SHT31;68762;51.980;5.646;2023-04-24T07:57:05;12.4;69.9
79187;SHT31;68762;51.980;5.646;2023-04-24T07:59:34;12.3;69.6
79187;SHT31;68762;51.980;5.646;2023-04-24T08:02:03;12.3;69.1
79187;SHT31;68762;51.980;5.646;2023-04-24T08:04:32;12.3;69.5
79187;SHT31;68762;51.980;5.646;2023-04-24T08:07:01;12.3;69.5
79187;SHT31;68762;51.980;5.646;2023-04-24T08:09:30;12.3;69.4
79187;SHT31;68762;51.980;5.646;2023-04-24T08:11:58;12.3;69.2
79187;SHT31;68762;51.980;5.646;2023-04-24T08:14:27;12.3;69.5
79187;SHT31;68762;51.980;5.646;2023-04-24T08:16:56;12.3;69.5
79187;SHT31;68762;51.980;5.646;2023-04-24T08:19:26;12.3;69.4
79187;SHT31;68762;51.980;5.646;2023-04-24T08:21:55;12.3;69.7
79187;SHT31;68762;51.980;5.646;2023-04-24T08:24:23;12.3;69.4
79187;SHT31;68762;51.980;5.646;2023-04-24T08:26:53;12.3;69.1
79187;SHT31;68762;51.980;5.646;2023-04-24T08:29:24;12.3;69.1
79187;SHT31;68762;51.980;5.646;2023-04-24T08:31:53;12.3;69.7
79187;SHT31;68762;51.980;5.646;2023-04-24T08:34:23;12.3;69.3
79187;SHT31;68762;51.980;5.646;2023-04-24T08:36:53;12.3;69.4
79187;SHT31;68762;51.980;5.646;2023-04-24T08:39:22;12.3;69.5
79187;SHT31;68762;51.980;5.646;2023-04-24T08:41:52;12.3;69.7
79187;SHT31;68762;51.980;5.646;2023-04-24T08:44:23;12.3;69.6
79187;SHT31;68762;51.980;5.646;2023-04-24T08:46:53;12.3;69.3
79187;SHT31;68762;51.980;5.646;2023-04-24T08:49:24;12.3;69.4
79187;SHT31;68762;51.980;5.646;2023-04-24T08:51:56;12.3;69.8
79187;SHT31;68762;51.980;5.646;2023-04-24T08:54:26;12.3;69.6
79187;SHT31;68762;51.980;5.646;2023-04-24T08:57:01;12.3;69.5
79187;SHT31;68762;51.980;5.646;2023-04-24T08:59:31;12.3;68.9
79187;SHT31;68762;51.980;5.646;2023-04-24T09:02:00;12.3;68.8
79187;SHT31;68762;51.980;5.646;2023-04-24T09:04:30;12.4;68.9
79187;SHT31;68762;51.980;5.646;2023-04-24T09:06:59;12.4;68.9
79187;SHT31;68762;51.980;5.646;2023-04-24T09:09:30;12.4;68.7
79187;SHT31;68762;51.980;5.646;2023-04-24T09:12:02;12.4;68.0
79187;SHT31;68762;51.980;5.646;2023-04-24T09:14:31;12.4;67.3
79187;SHT31;68762;51.980;5.646;2023-04-24T09:17:00;12.4;67.7
79187;SHT31;68762;51.980;5.646;2023-04-24T09:19:28;12.5;67.3
79187;SHT31;68762;51.980;5.646;2023-04-24T09:21:57;12.5;65.7
79187;SHT31;68762;51.980;5.646;2023-04-24T09:24:25;12.5;65.3
79187;SHT31;68762;51.980;5.646;2023-04-24T09:26:58;12.5;66.2
79187;SHT31;68762;51.980;5.646;2023-04-24T09:29:28;12.5;65.2
79187;SHT31;68762;51.980;5.646;2023-04-24T09:31:58;12.6;64.3
79187;SHT31;68762;51.980;5.646;2023-04-24T09:34:31;12.6;63.8
79187;SHT31;68762;51.980;5.646;2023-04-24T09:36:59;12.6;64.2
79187;SHT31;68762;51.980;5.646;2023-04-24T09:39:28;12.6;64.3
79187;SHT31;68762;51.980;5.646;2023-04-24T09:41:57;12.7;65.0
79187;SHT31;68762;51.980;5.646;2023-04-24T09:44:28;12.7;64.3
79187;SHT31;68762;51.980;5.646;2023-04-24T09:46:59;12.7;62.7
79187;SHT31;68762;51.980;5.646;2023-04-24T09:49:29;12.7;62.4
79187;SHT31;68762;51.980;5.646;2023-04-24T09:52:06;12.7;64.4
79187;SHT31;68762;51.980;5.646;2023-04-24T09:54:37;12.8;62.9
79187;SHT31;68762;51.980;5.646;2023-04-24T09:57:07;12.8;63.2
79187;SHT31;68762;51.980;5.646;2023-04-24T09:59:45;12.9;63.7
79187;SHT31;68762;51.980;5.646;2023-04-24T10:02:20;12.9;62.2
79187;SHT31;68762;51.980;5.646;2023-04-24T10:04:56;13.0;62.4
79187;SHT31;68762;51.980;5.646;2023-04-24T10:07:27;13.0;62.2
79187;SHT31;68762;51.980;5.646;2023-04-24T10:09:56;13.1;60.6
79187;SHT31;68762;51.980;5.646;2023-04-24T10:12:28;13.2;59.8
79187;SHT31;68762;51.980;5.646;2023-04-24T10:15:00;13.3;60.9
79187;SHT31;68762;51.980;5.646;2023-04-24T10:17:32;13.3;59.6
79187;SHT31;68762;51.980;5.646;2023-04-24T10:20:01;13.4;58.8
79187;SHT31;68762;51.980;5.646;2023-04-24T10:22:30;13.5;57.0
79187;SHT31;68762;51.980;5.646;2023-04-24T10:25:06;13.5;56.4
79187;SHT31;68762;51.980;5.646;2023-04-24T10:27:37;13.6;56.7
79187;SHT31;68762;51.980;5.646;2023-04-24T10:30:07;13.6;54.9
79187;SHT31;68762;51.980;5.646;2023-04-24T10:32:38;13.6;56.4
79187;SHT31;68762;51.980;5.646;2023-04-24T10:35:10;13.6;56.3
79187;SHT31;68762;51.980;5.646;2023-04-24T10:37:43;13.6;55.1
79187;SHT31;68762;51.980;5.646;2023-04-24T10:40:18;13.7;57.8
79187;SHT31;68762;51.980;5.646;2023-04-24T10:42:52;13.7;55.2
79187;SHT31;68762;51.980;5.646;2023-04-24T10:45:23;13.8;54.8
79187;SHT31;68762;51.980;5.646;2023-04-24T10:47:57;13.8;54.7
79187;SHT31;68762;51.980;5.646;2023-04-24T10:50:29;13.8;55.7
79187;SHT31;68762;51.980;5.646;2023-04-24T10:53:13;13.8;53.7
79187;SHT31;68762;51.980;5.646;2023-04-24T10:55:43;13.7;55.0
79187;SHT31;68762;51.980;5.646;2023-04-24T10:58:12;13.7;55.7
79187;SHT31;68762;51.980;5.646;2023-04-24T11:00:44;13.6;55.1
79187;SHT31;68762;51.980;5.646;2023-04-24T11:03:27;13.6;55.7
79187;SHT31;68762;51.980;5.646;2023-04-24T11:06:01;13.6;56.1
79187;SHT31;68762;51.980;5.646;2023-04-24T11:08:37;13.6;56.2
79187;SHT31;68762;51.980;5.646;2023-04-24T11:11:10;13.6;55.4
79187;SHT31;68762;51.980;5.646;2023-04-24T11:14:04;13.6;56.4
79187;SHT31;68762;51.980;5.646;2023-04-24T11:16:37;13.6;55.7
79187;SHT31;68762;51.980;5.646;2023-04-24T11:19:09;13.6;55.3
79187;SHT31;68762;51.980;5.646;2023-04-24T11:21:46;13.6;55.4
79187;SHT31;68762;51.980;5.646;2023-04-24T11:24:28;13.6;55.4
79187;SHT31;68762;51.980;5.646;2023-04-24T11:26:59;13.6;57.3
79187;SHT31;68762;51.980;5.646;2023-04-24T11:29:42;13.7;57.5
79187;SHT31;68762;51.980;5.646;2023-04-24T11:32:18;13.8;57.0
79187;SHT31;68762;51.980;5.646;2023-04-24T11:34:49;14.0;57.0
79187;SHT31;68762;51.980;5.646;2023-04-24T11:37:18;14.2;54.2
79187;SHT31;68762;51.980;5.646;2023-04-24T11:39:47;14.4;53.2
79187;SHT31;68762;51.980;5.646;2023-04-24T11:42:19;14.4;53.7
79187;SHT31;68762;51.980;5.646;2023-04-24T11:44:49;14.4;53.1
79187;SHT31;68762;51.980;5.646;2023-04-24T11:47:18;14.4;52.7
79187;SHT31;68762;51.980;5.646;2023-04-24T11:49:52;14.4;53.3
79187;SHT31;68762;51.980;5.646;2023-04-24T11:52:21;14.4;54.0
79187;SHT31;68762;51.980;5.646;2023-04-24T11:54:50;14.3;54.6
79187;SHT31;68762;51.980;5.646;2023-04-24T11:57:21;14.3;55.9
79187;SHT31;68762;51.980;5.646;2023-04-24T11:59:50;14.3;55.8
79187;SHT31;68762;51.980;5.646;2023-04-24T12:02:22;14.2;56.9
79187;SHT31;68762;51.980;5.646;2023-04-24T12:04:52;14.1;57.5
79187;SHT31;68762;51.980;5.646;2023-04-24T12:07:21;14.1;57.2
79187;SHT31;68762;51.980;5.646;2023-04-24T12:09:56;14.0;57.2
79187;SHT31;68762;51.980;5.646;2023-04-24T12:12:27;13.9;57.6
79187;SHT31;68762;51.980;5.646;2023-04-24T12:14:58;13.9;58.3
79187;SHT31;68762;51.980;5.646;2023-04-24T12:17:29;13.9;57.2
79187;SHT31;68762;51.980;5.646;2023-04-24T12:20:03;13.9;56.7
79187;SHT31;68762;51.980;5.646;2023-04-24T12:22:45;13.9;56.0
79187;SHT31;68762;51.980;5.646;2023-04-24T12:25:15;14.0;57.3
79187;SHT31;68762;51.980;5.646;2023-04-24T12:27:44;14.0;56.0
79187;SHT31;68762;51.980;5.646;2023-04-24T12:30:15;14.0;54.0
79187;SHT31;68762;51.980;5.646;2023-04-24T12:32:46;14.0;54.3
79187;SHT31;68762;51.980;5.646;2023-04-24T12:35:20;14.0;53.3
79187;SHT31;68762;51.980;5.646;2023-04-24T12:37:51;14.0;52.6
79187;SHT31;68762;51.980;5.646;2023-04-24T12:40:21;14.0;54.2
79187;SHT31;68762;51.980;5.646;2023-04-24T12:42:51;13.9;54.2
79187;SHT31;68762;51.980;5.646;2023-04-24T12:45:20;13.9;54.9
79187;SHT31;68762;51.980;5.646;2023-04-24T12:47:50;13.9;54.1
79187;SHT31;68762;51.980;5.646;2023-04-24T12:50:19;13.9;54.6
79187;SHT31;68762;51.980;5.646;2023-04-24T12:52:49;13.9;54.1
79187;SHT31;68762;51.980;5.646;2023-04-24T12:55:18;13.9;54.8
79187;SHT31;68762;51.980;5.646;2023-04-24T12:57:47;13.9;53.8
79187;SHT31;68762;51.980;5.646;2023-04-24T13:00:16;13.9;53.7
79187;SHT31;68762;51.980;5.646;2023-04-24T13:02:44;13.8;54.1
79187;SHT31;68762;51.980;5.646;2023-04-24T13:05:15;13.8;54.4
79187;SHT31;68762;51.980;5.646;2023-04-24T13:07:44;13.9;53.7
79187;SHT31;68762;51.980;5.646;2023-04-24T13:10:12;13.9;52.3
79187;SHT31;68762;51.980;5.646;2023-04-24T13:12:41;13.9;53.2
79187;SHT31;68762;51.980;5.646;2023-04-24T13:15:12;13.9;51.9
79187;SHT31;68762;51.980;5.646;2023-04-24T13:17:41;13.9;51.1
79187;SHT31;68762;51.980;5.646;2023-04-24T13:20:10;13.9;52.7
79187;SHT31;68762;51.980;5.646;2023-04-24T13:22:39;13.8;51.7
79187;SHT31;68762;51.980;5.646;2023-04-24T13:25:08;13.8;51.6
79187;SHT31;68762;51.980;5.646;2023-04-24T13:27:38;13.8;52.5
79187;SHT31;68762;51.980;5.646;2023-04-24T13:30:07;13.8;52.8
79187;SHT31;68762;51.980;5.646;2023-04-24T13:32:37;13.9;53.7
79187;SHT31;68762;51.980;5.646;2023-04-24T13:35:08;13.9;54.1
79187;SHT31;68762;51.980;5.646;2023-04-24T13:37:37;14.0;54.6
79187;SHT31;68762;51.980;5.646;2023-04-24T13:40:06;14.2;55.5
79187;SHT31;68762;51.980;5.646;2023-04-24T13:42:35;14.5;51.8
79187;SHT31;68762;51.980;5.646;2023-04-24T13:45:04;14.9;51.2
79187;SHT31;68762;51.980;5.646;2023-04-24T13:47:33;15.4;50.2
79187;SHT31;68762;51.980;5.646;2023-04-24T13:50:02;16.3;44.8
79187;SHT31;68762;51.980;5.646;2023-04-24T13:52:31;16.9;42.6
79187;SHT31;68762;51.980;5.646;2023-04-24T13:55:00;17.2;42.5
79187;SHT31;68762;51.980;5.646;2023-04-24T13:57:29;17.4;43.2
79187;SHT31;68762;51.980;5.646;2023-04-24T13:59:57;17.5;41.6
79187;SHT31;68762;51.980;5.646;2023-04-24T14:02:30;17.4;40.2
79187;SHT31;68762;51.980;5.646;2023-04-24T14:04:58;17.3;40.9
79187;SHT31;68762;51.980;5.646;2023-04-24T14:07:28;17.1;41.9
79187;SHT31;68762;51.980;5.646;2023-04-24T14:09:56;17.0;41.3
79187;SHT31;68762;51.980;5.646;2023-04-24T14:12:25;17.0;42.5
79187;SHT31;68762;51.980;5.646;2023-04-24T14:14:56;17.1;42.6
79187;SHT31;68762;51.980;5.646;2023-04-24T14:17:25;17.2;42.1
79187;SHT31;68762;51.980;5.646;2023-04-24T14:19:54;17.3;41.2
79187;SHT31;68762;51.980;5.646;2023-04-24T14:22:26;17.3;40.8
79187;SHT31;68762;51.980;5.646;2023-04-24T14:24:56;17.2;40.4
79187;SHT31;68762;51.980;5.646;2023-04-24T14:27:26;17.1;39.4
79187;SHT31;68762;51.980;5.646;2023-04-24T14:29:55;17.0;39.6
79187;SHT31;68762;51.980;5.646;2023-04-24T14:32:23;16.9;41.4
79187;SHT31;68762;51.980;5.646;2023-04-24T14:34:52;16.9;41.4
79187;SHT31;68762;51.980;5.646;2023-04-24T14:37:21;16.8;42.0
79187;SHT31;68762;51.980;5.646;2023-04-24T14:39:49;16.7;41.2
79187;SHT31;68762;51.980;5.646;2023-04-24T14:42:18;16.7;40.8
79187;SHT31;68762;51.980;5.646;2023-04-24T14:44:47;16.6;40.4
79187;SHT31;68762;51.980;5.646;2023-04-24T14:47:16;16.5;40.0
79187;SHT31;68762;51.980;5.646;2023-04-24T14:49:47;16.4;40.3
79187;SHT31;68762;51.980;5.646;2023-04-24T14:52:16;16.3;42.2
79187;SHT31;68762;51.980;5.646;2023-04-24T14:54:45;16.2;43.0
79187;SHT31;68762;51.980;5.646;2023-04-24T14:57:13;16.1;42.9
79187;SHT31;68762;51.980;5.646;2023-04-24T14:59:44;16.1;44.1
79187;SHT31;68762;51.980;5.646;2023-04-24T15:02:14;16.0;43.2
79187;SHT31;68762;51.980;5.646;2023-04-24T15:04:43;16.0;43.7
79187;SHT31;68762;51.980;5.646;2023-04-24T15:07:12;16.0;44.6
79187;SHT31;68762;51.980;5.646;2023-04-24T15:09:40;15.9;44.2
79187;SHT31;68762;51.980;5.646;2023-04-24T15:12:09;15.9;44.1
79187;SHT31;68762;51.980;5.646;2023-04-24T15:14:38;15.8;44.8
79187;SHT31;68762;51.980;5.646;2023-04-24T15:17:07;15.7;43.7
79187;SHT31;68762;51.980;5.646;2023-04-24T15:19:36;15.6;44.9
79187;SHT31;68762;51.980;5.646;2023-04-24T15:22:04;15.5;45.1
79187;SHT31;68762;51.980;5.646;2023-04-24T15:24:33;15.4;45.0
79187;SHT31;68762;51.980;5.646;2023-04-24T15:27:01;15.4;46.8
79187;SHT31;68762;51.980;5.646;2023-04-24T15:29:30;15.3;48.2
79187;SHT31;68762;51.980;5.646;2023-04-24T15:31:59;15.2;48.3
79187;SHT31;68762;51.980;5.646;2023-04-24T15:34:28;15.2;48.2
79187;SHT31;68762;51.980;5.646;2023-04-24T15:36:58;15.2;47.8
79187;SHT31;68762;51.980;5.646;2023-04-24T15:39:27;15.1;48.3
79187;SHT31;68762;51.980;5.646;2023-04-24T15:41:55;15.1;45.4
79187;SHT31;68762;51.980;5.646;2023-04-24T15:44:27;15.0;45.6
79187;SHT31;68762;51.980;5.646;2023-04-24T15:46:55;15.0;45.0
79187;SHT31;68762;51.980;5.646;2023-04-24T15:49:25;15.0;45.7
79187;SHT31;68762;51.980;5.646;2023-04-24T15:51:53;14.9;45.8
79187;SHT31;68762;51.980;5.646;2023-04-24T15:54:22;14.9;46.5
79187;SHT31;68762;51.980;5.646;2023-04-24T15:56:51;14.9;46.7
79187;SHT31;68762;51.980;5.646;2023-04-24T15:59:22;14.8;47.7
79187;SHT31;68762;51.980;5.646;2023-04-24T16:01:54;14.8;49.6
79187;SHT31;68762;51.980;5.646;2023-04-24T16:04:22;14.8;49.1
79187;SHT31;68762;51.980;5.646;2023-04-24T16:06:51;14.8;49.4
79187;SHT31;68762;51.980;5.646;2023-04-24T16:09:20;14.7;49.9
79187;SHT31;68762;51.980;5.646;2023-04-24T16:11:48;14.7;49.1
79187;SHT31;68762;51.980;5.646;2023-04-24T16:14:17;14.6;48.7
79187;SHT31;68762;51.980;5.646;2023-04-24T16:16:46;14.6;48.3
79187;SHT31;68762;51.980;5.646;2023-04-24T16:19:14;14.6;46.8